createdAt,value
2023-03-04T00:02:06.467Z,54.03
2023-03-04T00:04:33.256Z,54.00
2023-03-04T00:07:00.247Z,54.25
2023-03-04T00:09:27.198Z,54.10
2023-03-04T00:11:53.959Z,54.04
2023-03-04T00:14:21.141Z,54.15
2023-03-04T00:16:49.264Z,53.85
2023-03-04T00:19:16.114Z,53.92
2023-03-04T00:21:43.359Z,54.24
2023-03-04T00:24:10.109Z,54.20
2023-03-04T00:26:36.945Z,54.25
2023-03-04T00:29:03.877Z,54.32
2023-03-04T00:31:30.794Z,54.31
2023-03-04T00:33:57.537Z,54.22
2023-03-04T00:36:25.424Z,54.31
2023-03-04T00:38:52.275Z,54.31
2023-03-04T00:41:19.130Z,54.05
2023-03-04T00:43:45.976Z,53.98
2023-03-04T00:46:12.796Z,54.00
2023-03-04T00:48:39.719Z,53.74
2023-03-04T00:51:06.517Z,53.43
2023-03-04T00:53:33.248Z,53.56
2023-03-04T00:56:00.093Z,53.69
2023-03-04T00:58:26.971Z,53.75
2023-03-04T01:00:53.748Z,53.68
2023-03-04T01:03:20.784Z,53.79
2023-03-04T01:05:47.706Z,53.94
2023-03-04T01:08:14.486Z,53.83
2023-03-04T01:10:41.228Z,53.90
2023-03-04T01:13:08.259Z,53.80
2023-03-04T01:15:35.056Z,53.62
2023-03-04T01:18:01.934Z,53.62
2023-03-04T01:20:28.823Z,53.57
2023-03-04T01:22:55.567Z,53.54
2023-03-04T01:25:22.337Z,53.52
2023-03-04T01:27:49.211Z,53.46
2023-03-04T01:30:15.958Z,53.67
2023-03-04T01:32:42.722Z,54.18
2023-03-04T01:35:10.001Z,54.45
2023-03-04T01:37:36.809Z,54.70
2023-03-04T01:40:03.812Z,54.97
2023-03-04T01:42:32.022Z,54.75
2023-03-04T01:44:58.874Z,54.50
2023-03-04T01:47:28.170Z,54.07
2023-03-04T01:49:57.582Z,54.09
2023-03-04T01:52:24.484Z,53.65
2023-03-04T01:54:51.338Z,53.92
2023-03-04T01:57:25.819Z,53.56
2023-03-04T02:00:22.334Z,53.38
2023-03-04T02:02:51.037Z,53.38
2023-03-04T02:05:17.819Z,53.04
2023-03-04T02:07:44.561Z,53.13
2023-03-04T02:10:11.642Z,53.08
2023-03-04T02:12:38.521Z,52.97
2023-03-04T02:15:06.436Z,52.86
2023-03-04T02:17:33.321Z,53.35
2023-03-04T02:20:15.826Z,53.31
2023-03-04T02:22:47.526Z,53.31
2023-03-04T02:25:18.572Z,53.32
2023-03-04T02:27:45.314Z,53.26
2023-03-04T02:30:12.679Z,53.17
2023-03-04T02:32:39.455Z,53.23
2023-03-04T02:35:06.879Z,53.18
2023-03-04T02:37:33.726Z,53.23
2023-03-04T02:40:00.448Z,53.23
2023-03-04T02:42:27.263Z,53.27
2023-03-04T02:45:00.431Z,53.36
2023-03-04T02:47:27.179Z,53.49
2023-03-04T02:49:53.959Z,53.47
2023-03-04T02:52:22.748Z,53.39
2023-03-04T02:54:49.498Z,53.43
2023-03-04T02:57:16.325Z,53.33
2023-03-04T02:59:43.291Z,53.22
2023-03-04T03:02:10.232Z,53.14
2023-03-04T03:04:37.621Z,52.85
2023-03-04T03:07:04.581Z,52.82
2023-03-04T03:09:31.416Z,52.90
2023-03-04T03:11:58.188Z,52.70
2023-03-04T03:14:25.240Z,52.88
2023-03-04T03:16:52.049Z,52.77
2023-03-04T03:19:18.797Z,52.81
2023-03-04T03:21:45.708Z,52.84
2023-03-04T03:24:12.424Z,52.71
2023-03-04T03:26:40.197Z,53.02
2023-03-04T03:29:07.204Z,52.65
2023-03-04T03:31:34.123Z,52.89
2023-03-04T03:34:00.903Z,52.77
2023-03-04T03:36:27.904Z,52.81
2023-03-04T03:38:54.856Z,52.67
2023-03-04T03:41:21.644Z,52.32
2023-03-04T03:43:48.428Z,52.29
2023-03-04T03:46:15.343Z,51.75
2023-03-04T03:48:42.203Z,51.96
2023-03-04T03:51:09.061Z,51.82
2023-03-04T03:53:35.938Z,51.93
2023-03-04T03:56:02.745Z,51.87
2023-03-04T03:58:29.693Z,51.56
2023-03-04T04:00:58.325Z,51.66
2023-03-04T04:03:25.468Z,51.39
2023-03-04T04:05:52.425Z,51.70
2023-03-04T04:08:19.278Z,51.79
2023-03-04T04:10:46.160Z,52.01
2023-03-04T04:13:13.118Z,52.45
2023-03-04T04:15:39.904Z,52.52
2023-03-04T04:18:07.054Z,52.79
2023-03-04T04:20:34.296Z,52.68
2023-03-04T04:23:01.192Z,52.35
2023-03-04T04:25:28.358Z,52.46
2023-03-04T04:27:55.374Z,52.22
2023-03-04T04:30:22.219Z,51.99
2023-03-04T04:32:50.083Z,51.67
2023-03-04T04:35:17.205Z,51.52
2023-03-04T04:37:43.957Z,51.06
2023-03-04T04:40:11.415Z,50.71
2023-03-04T04:42:38.236Z,50.15
2023-03-04T04:45:05.486Z,49.75
2023-03-04T04:47:32.222Z,49.51
2023-03-04T04:49:59.148Z,48.99
2023-03-04T04:52:25.936Z,49.23
2023-03-04T04:54:52.663Z,49.04
2023-03-04T04:57:19.553Z,48.50
2023-03-04T04:59:46.425Z,48.08
2023-03-04T05:02:13.265Z,48.00
2023-03-04T05:04:40.162Z,47.83
2023-03-04T05:07:06.899Z,47.17
2023-03-04T05:09:33.716Z,46.99
2023-03-04T05:12:00.702Z,46.85
2023-03-04T05:14:27.518Z,46.39
2023-03-04T05:16:54.375Z,45.92
2023-03-04T05:19:21.623Z,45.85
2023-03-04T05:21:48.474Z,45.87
2023-03-04T05:24:15.298Z,45.56
2023-03-04T05:26:43.693Z,45.29
2023-03-04T05:29:10.472Z,45.43
2023-03-04T05:31:37.232Z,45.58
2023-03-04T05:34:04.437Z,45.63
2023-03-04T05:36:31.247Z,45.72
2023-03-04T05:38:57.998Z,45.78
2023-03-04T05:41:26.078Z,45.45
2023-03-04T05:43:53.090Z,45.55
2023-03-04T05:46:25.577Z,44.95
2023-03-04T05:48:53.593Z,44.99
2023-03-04T05:51:20.616Z,45.20
2023-03-04T05:53:47.623Z,44.98
2023-03-04T05:56:18.373Z,45.18
2023-03-04T05:58:45.198Z,44.38
2023-03-04T06:01:12.032Z,43.92
2023-03-04T06:03:39.154Z,43.97
2023-03-04T06:06:06.601Z,43.66
2023-03-04T06:08:33.498Z,43.42
2023-03-04T06:11:00.800Z,43.26
2023-03-04T06:13:27.771Z,42.99
2023-03-04T06:15:55.582Z,42.90
2023-03-04T06:18:23.071Z,42.82
2023-03-04T06:20:50.073Z,43.00
2023-03-04T06:23:17.333Z,42.91
2023-03-04T06:25:44.303Z,42.60
2023-03-04T06:28:11.131Z,42.81
2023-03-04T06:30:37.946Z,42.56
2023-03-04T06:33:04.878Z,42.48
2023-03-04T06:35:31.736Z,42.40
2023-03-04T06:37:58.459Z,42.32
2023-03-04T06:40:25.322Z,42.28
2023-03-04T06:42:52.060Z,42.12
2023-03-04T06:45:18.883Z,42.03
2023-03-04T06:47:45.851Z,42.15
2023-03-04T06:50:13.030Z,41.96
2023-03-04T06:52:40.175Z,41.92
2023-03-04T06:55:07.985Z,41.87
2023-03-04T06:57:34.836Z,41.68
2023-03-04T07:00:03.550Z,41.83
2023-03-04T07:02:30.458Z,41.66
2023-03-04T07:04:57.218Z,41.89
2023-03-04T07:07:25.792Z,41.60
2023-03-04T07:09:52.742Z,41.62
2023-03-04T07:12:19.506Z,41.49
2023-03-04T07:14:46.248Z,42.06
2023-03-04T07:17:13.201Z,41.34
2023-03-04T07:19:40.623Z,41.43
2023-03-04T07:22:07.502Z,41.53
2023-03-04T07:24:34.463Z,41.56
2023-03-04T07:27:01.310Z,41.51
2023-03-04T07:29:28.115Z,41.16
2023-03-04T07:31:55.682Z,41.40
2023-03-04T07:34:22.586Z,41.21
2023-03-04T07:36:49.390Z,41.12
2023-03-04T07:39:16.266Z,40.96
2023-03-04T07:41:43.124Z,40.98
2023-03-04T07:44:13.163Z,40.46
2023-03-04T07:46:40.336Z,40.50
2023-03-04T07:49:07.537Z,40.73
2023-03-04T07:51:35.200Z,40.59
2023-03-04T07:54:02.150Z,40.04
2023-03-04T07:56:31.422Z,39.67
2023-03-04T07:58:58.304Z,39.39
2023-03-04T08:01:35.802Z,39.47
2023-03-04T08:04:03.979Z,39.26
2023-03-04T08:06:30.794Z,38.27
2023-03-04T08:08:59.285Z,38.30
2023-03-04T08:11:26.108Z,38.33
2023-03-04T08:13:54.348Z,37.84
2023-03-04T08:16:21.947Z,38.06
2023-03-04T08:18:52.484Z,37.18
2023-03-04T08:21:19.870Z,37.00
2023-03-04T08:23:47.350Z,37.27
2023-03-04T08:26:21.106Z,37.30
2023-03-04T08:28:48.153Z,36.69
2023-03-04T08:31:15.288Z,36.38
2023-03-04T08:33:42.094Z,36.25
2023-03-04T08:36:09.162Z,36.04
2023-03-04T08:38:36.056Z,35.62
2023-03-04T08:41:04.210Z,35.68
2023-03-04T08:43:31.188Z,35.82
2023-03-04T08:45:58.011Z,34.81
2023-03-04T08:48:24.904Z,34.85
2023-03-04T08:50:51.917Z,34.41
2023-03-04T08:53:18.929Z,34.57
2023-03-04T08:55:46.220Z,34.52
2023-03-04T08:58:13.235Z,34.12
2023-03-04T09:00:43.263Z,34.31
2023-03-04T09:03:13.533Z,33.65
2023-03-04T09:05:40.674Z,33.24
2023-03-04T09:08:08.075Z,33.25
2023-03-04T09:10:34.958Z,33.30
2023-03-04T09:13:02.028Z,32.96
2023-03-04T09:15:28.958Z,32.21
2023-03-04T09:17:55.950Z,32.75
2023-03-04T09:20:23.381Z,32.40
2023-03-04T09:22:50.256Z,32.67
2023-03-04T09:25:17.218Z,31.91
2023-03-04T09:27:44.075Z,32.17
2023-03-04T09:30:11.470Z,31.51
2023-03-04T09:32:38.548Z,30.93
2023-03-04T09:35:05.822Z,31.08
2023-03-04T09:37:32.765Z,31.61
2023-03-04T09:39:59.714Z,31.98
2023-03-04T09:42:42.250Z,32.34
2023-03-04T09:45:11.785Z,31.28
2023-03-04T09:47:38.564Z,29.87
2023-03-04T09:50:08.045Z,30.08
2023-03-04T09:53:02.113Z,29.59
2023-03-04T09:55:28.921Z,30.20
2023-03-04T09:58:13.870Z,29.92
2023-03-04T10:00:57.085Z,29.52
2023-03-04T10:03:45.341Z,30.14
2023-03-04T10:06:13.787Z,29.46
2023-03-04T10:08:59.497Z,29.64
2023-03-04T10:11:47.192Z,29.32
2023-03-04T10:14:23.163Z,29.20
2023-03-04T10:17:01.084Z,29.00
2023-03-04T10:19:27.806Z,28.92
2023-03-04T10:21:54.552Z,28.12
2023-03-04T10:24:22.997Z,28.15
2023-03-04T10:26:54.389Z,28.00
2023-03-04T10:29:24.509Z,28.17
2023-03-04T10:31:51.560Z,28.55
2023-03-04T10:34:18.449Z,28.43
2023-03-04T10:36:54.899Z,28.44
2023-03-04T10:39:25.594Z,27.70
2023-03-04T10:42:02.592Z,27.34
2023-03-04T10:44:29.824Z,27.24
2023-03-04T10:46:57.466Z,27.21
2023-03-04T10:49:25.199Z,27.54
2023-03-04T10:52:02.314Z,27.43
2023-03-04T10:54:42.126Z,27.14
2023-03-04T10:57:23.898Z,27.69
2023-03-04T11:00:18.467Z,27.33
2023-03-04T11:02:46.301Z,27.36
2023-03-04T11:05:23.613Z,28.23
2023-03-04T11:07:56.225Z,27.34
2023-03-04T11:10:28.447Z,26.55
2023-03-04T11:13:02.164Z,27.44
2023-03-04T11:15:31.361Z,26.70
2023-03-04T11:18:04.686Z,26.56
2023-03-04T11:20:32.343Z,26.28
2023-03-04T11:23:10.176Z,26.24
2023-03-04T11:25:38.794Z,26.13
2023-03-04T11:28:22.227Z,25.75
2023-03-04T11:30:52.277Z,25.56
2023-03-04T11:33:29.105Z,25.31
2023-03-04T11:36:09.867Z,23.94
2023-03-04T11:38:40.377Z,23.19
2023-03-04T11:41:13.370Z,23.32
2023-03-04T11:43:42.514Z,23.20
2023-03-04T11:46:10.414Z,22.88
2023-03-04T11:48:40.315Z,23.85
2023-03-04T11:51:21.363Z,23.25
2023-03-04T11:53:57.105Z,24.12
2023-03-04T11:56:44.759Z,23.97
2023-03-04T11:59:26.465Z,23.35
2023-03-04T12:01:59.998Z,23.24
2023-03-04T12:05:03.658Z,23.38
2023-03-04T12:08:09.512Z,22.52
2023-03-04T12:11:04.316Z,22.84
2023-03-04T12:13:46.210Z,22.02
2023-03-04T12:16:25.088Z,22.40
2023-03-04T12:18:58.604Z,21.83
2023-03-04T12:21:34.741Z,22.05
2023-03-04T12:24:19.276Z,21.49
2023-03-04T12:26:58.793Z,20.81
2023-03-04T12:29:28.736Z,21.47
2023-03-04T12:32:04.821Z,20.97
2023-03-04T12:34:33.609Z,21.53
2023-03-04T12:37:27.851Z,21.52
2023-03-04T12:40:17.314Z,19.50
2023-03-04T12:42:53.072Z,20.18
2023-03-04T12:45:29.432Z,20.44
2023-03-04T12:48:11.460Z,19.72
2023-03-04T12:50:56.647Z,18.99
2023-03-04T12:53:38.337Z,18.63
2023-03-04T12:56:05.191Z,18.98
2023-03-04T12:58:32.807Z,18.66
2023-03-04T13:01:12.886Z,19.04
2023-03-04T13:04:06.031Z,19.27
2023-03-04T13:06:47.993Z,19.05
2023-03-04T13:09:35.918Z,18.84
2023-03-04T13:12:02.669Z,18.76
2023-03-04T13:14:30.483Z,18.36
2023-03-04T13:17:37.463Z,18.08
2023-03-04T13:20:32.377Z,17.43
2023-03-04T13:23:05.244Z,17.54
2023-03-04T13:25:45.271Z,17.89
2023-03-04T13:28:28.866Z,17.01
2023-03-04T13:30:56.000Z,17.04
2023-03-04T13:33:22.749Z,16.44
2023-03-04T13:35:50.560Z,16.20
2023-03-04T13:38:33.526Z,16.48
2023-03-04T13:41:09.481Z,17.42
2023-03-04T13:43:39.991Z,18.04
2023-03-04T13:46:19.241Z,18.55
2023-03-04T13:48:52.304Z,19.05
2023-03-04T13:51:46.285Z,20.33
2023-03-04T13:54:28.974Z,20.39
2023-03-04T13:57:01.783Z,21.39
2023-03-04T13:59:44.905Z,22.68
2023-03-04T14:02:12.715Z,23.63
2023-03-04T14:04:40.777Z,24.34
2023-03-04T14:07:22.220Z,25.51
2023-03-04T14:09:56.210Z,25.81
2023-03-04T14:12:23.413Z,26.24
2023-03-04T14:14:55.357Z,27.15
2023-03-04T14:17:45.782Z,27.54
2023-03-04T14:20:39.607Z,27.64
2023-03-04T14:23:26.546Z,27.86
2023-03-04T14:26:27.715Z,28.95
2023-03-04T14:28:57.586Z,28.53
2023-03-04T14:31:25.087Z,29.06
2023-03-04T14:33:59.961Z,29.47
2023-03-04T14:36:27.094Z,29.56
2023-03-04T14:38:54.912Z,30.19
2023-03-04T14:41:43.454Z,30.41
2023-03-04T14:44:24.139Z,30.44
2023-03-04T14:47:06.513Z,30.93
2023-03-04T14:49:35.876Z,30.78
2023-03-04T14:52:02.788Z,31.00
2023-03-04T14:54:39.328Z,31.19
2023-03-04T14:57:35.740Z,31.60
2023-03-04T15:00:38.207Z,31.72
2023-03-04T15:03:21.847Z,31.70
2023-03-04T15:05:49.079Z,31.80
2023-03-04T15:08:26.144Z,32.47
2023-03-04T15:11:00.547Z,32.36
2023-03-04T15:13:39.787Z,32.97
2023-03-04T15:16:06.963Z,32.69
2023-03-04T15:18:33.827Z,33.43
2023-03-04T15:21:02.038Z,33.25
2023-03-04T15:23:30.224Z,33.47
2023-03-04T15:26:01.974Z,33.46
2023-03-04T15:28:36.502Z,33.63
2023-03-04T15:31:04.386Z,33.19
2023-03-04T15:33:31.411Z,33.49
2023-03-04T15:36:02.353Z,32.99
2023-03-04T15:38:29.367Z,32.63
2023-03-04T15:40:58.481Z,32.48
2023-03-04T15:43:25.511Z,32.10
2023-03-04T15:45:52.662Z,31.94
2023-03-04T15:48:19.674Z,32.22
2023-03-04T15:50:57.237Z,32.11
2023-03-04T15:53:49.483Z,31.76
2023-03-04T15:56:36.530Z,31.89
2023-03-04T15:59:13.476Z,32.06
2023-03-04T16:01:40.427Z,31.90
2023-03-04T16:04:17.034Z,31.82
2023-03-04T16:06:44.778Z,31.52
2023-03-04T16:09:14.386Z,31.72
2023-03-04T16:11:44.549Z,31.70
2023-03-04T16:14:14.910Z,31.95
2023-03-04T16:16:44.588Z,31.92
2023-03-04T16:19:11.818Z,32.49
2023-03-04T16:21:38.591Z,32.60
2023-03-04T16:24:05.942Z,33.13
2023-03-04T16:26:32.767Z,33.25
2023-03-04T16:29:00.578Z,33.29
2023-03-04T16:31:27.545Z,33.80
2023-03-04T16:33:54.391Z,33.78
2023-03-04T16:36:27.660Z,33.94
2023-03-04T16:38:59.218Z,34.17
2023-03-04T16:41:28.185Z,34.26
2023-03-04T16:43:56.710Z,34.24
2023-03-04T16:46:23.900Z,34.38
2023-03-04T16:48:50.879Z,34.72
2023-03-04T16:51:19.567Z,34.75
2023-03-04T16:53:53.771Z,35.23
2023-03-04T16:56:20.858Z,35.26
2023-03-04T16:58:47.655Z,35.67
2023-03-04T17:01:26.103Z,36.13
2023-03-04T17:03:54.009Z,35.93
2023-03-04T17:06:21.182Z,36.25
2023-03-04T17:08:48.173Z,36.30
2023-03-04T17:11:19.713Z,36.73
2023-03-04T17:13:46.528Z,36.82
2023-03-04T17:16:13.366Z,36.70
2023-03-04T17:18:40.222Z,36.68
2023-03-04T17:21:08.728Z,37.02
2023-03-04T17:23:35.463Z,37.38
2023-03-04T17:26:02.274Z,37.31
2023-03-04T17:28:29.350Z,37.70
2023-03-04T17:30:56.205Z,37.70
2023-03-04T17:33:23.164Z,38.18
2023-03-04T17:35:50.130Z,38.21
2023-03-04T17:38:17.148Z,38.25
2023-03-04T17:40:44.049Z,38.34
2023-03-04T17:43:13.784Z,38.67
2023-03-04T17:45:40.586Z,38.35
2023-03-04T17:48:07.889Z,38.63
2023-03-04T17:50:35.160Z,38.54
2023-03-04T17:53:01.996Z,38.95
2023-03-04T17:55:28.772Z,38.83
2023-03-04T17:57:57.599Z,39.17
2023-03-04T18:00:24.606Z,39.07
2023-03-04T18:02:51.454Z,39.27
2023-03-04T18:05:18.552Z,39.49
2023-03-04T18:07:45.294Z,39.83
2023-03-04T18:10:12.319Z,40.05
2023-03-04T18:12:39.340Z,40.05
2023-03-04T18:15:06.698Z,40.33
2023-03-04T18:17:33.424Z,40.56
2023-03-04T18:20:01.985Z,40.62
2023-03-04T18:22:29.657Z,40.81
2023-03-04T18:24:56.486Z,40.72
2023-03-04T18:27:23.286Z,40.86
2023-03-04T18:29:50.050Z,41.19
2023-03-04T18:32:17.045Z,41.16
2023-03-04T18:34:43.806Z,41.38
2023-03-04T18:37:10.568Z,41.46
2023-03-04T18:39:37.430Z,41.46
2023-03-04T18:42:04.315Z,41.74
2023-03-04T18:44:31.246Z,41.99
2023-03-04T18:46:58.096Z,41.95
2023-03-04T18:49:25.024Z,42.39
2023-03-04T18:51:52.100Z,42.41
2023-03-04T18:54:19.160Z,42.42
2023-03-04T18:56:51.764Z,42.74
2023-03-04T18:59:21.765Z,43.00
2023-03-04T19:01:48.600Z,42.98
2023-03-04T19:04:15.686Z,43.13
2023-03-04T19:06:42.513Z,43.29
2023-03-04T19:09:09.348Z,43.48
2023-03-04T19:11:36.185Z,43.71
2023-03-04T19:14:02.972Z,43.81
2023-03-04T19:16:29.814Z,43.94
2023-03-04T19:18:56.811Z,43.98
2023-03-04T19:21:23.555Z,44.26
2023-03-04T19:23:50.335Z,44.34
2023-03-04T19:26:19.561Z,44.37
2023-03-04T19:28:46.307Z,44.55
2023-03-04T19:31:13.527Z,44.78
2023-03-04T19:33:40.936Z,44.82
2023-03-04T19:36:08.460Z,44.77
2023-03-04T19:38:35.528Z,45.03
2023-03-04T19:41:13.365Z,45.28
2023-03-04T19:43:40.448Z,45.21
2023-03-04T19:46:07.837Z,45.28
2023-03-04T19:48:35.248Z,45.27
2023-03-04T19:51:02.291Z,45.46
2023-03-04T19:53:29.626Z,45.64
2023-03-04T19:55:56.493Z,45.77
2023-03-04T19:58:23.358Z,45.87
2023-03-04T20:00:52.158Z,45.76
2023-03-04T20:03:19.131Z,45.98
2023-03-04T20:05:46.595Z,46.10
2023-03-04T20:08:13.583Z,46.02
2023-03-04T20:10:41.332Z,46.15
2023-03-04T20:13:08.811Z,46.31
2023-03-04T20:15:35.677Z,46.13
2023-03-04T20:18:02.651Z,46.30
2023-03-04T20:20:29.439Z,46.48
2023-03-04T20:22:56.688Z,46.34
2023-03-04T20:25:24.586Z,46.63
2023-03-04T20:27:51.446Z,46.45
2023-03-04T20:30:18.595Z,46.47
2023-03-04T20:32:45.619Z,46.48
2023-03-04T20:35:15.134Z,46.38
2023-03-04T20:37:42.348Z,46.36
2023-03-04T20:40:11.168Z,46.41
2023-03-04T20:42:38.018Z,46.21
2023-03-04T20:45:05.174Z,46.14
2023-03-04T20:47:32.216Z,46.03
2023-03-04T20:49:58.956Z,45.78
2023-03-04T20:52:25.749Z,45.63
2023-03-04T20:54:52.796Z,45.43
2023-03-04T20:57:19.615Z,45.66
2023-03-04T20:59:46.342Z,45.75
2023-03-04T21:02:14.825Z,45.81
2023-03-04T21:04:41.787Z,45.90
2023-03-04T21:07:08.544Z,46.03
2023-03-04T21:09:35.396Z,46.04
2023-03-04T21:12:02.272Z,46.02
2023-03-04T21:14:30.232Z,46.10
2023-03-04T21:16:58.601Z,46.04
2023-03-04T21:19:29.647Z,45.93
2023-03-04T21:21:56.926Z,45.94
2023-03-04T21:24:26.701Z,46.18
2023-03-04T21:26:53.475Z,46.04
2023-03-04T21:29:22.323Z,45.92
2023-03-04T21:31:54.224Z,45.84
2023-03-04T21:34:28.238Z,46.09
2023-03-04T21:36:55.260Z,46.08
2023-03-04T21:39:23.215Z,46.00
2023-03-04T21:41:50.192Z,46.17
2023-03-04T21:44:27.791Z,46.15
2023-03-04T21:46:59.218Z,46.12
2023-03-04T21:49:26.492Z,46.08
2023-03-04T21:51:53.299Z,46.20
2023-03-04T21:54:20.150Z,46.20
2023-03-04T21:56:47.143Z,46.07
2023-03-04T21:59:14.334Z,46.23
2023-03-04T22:01:41.731Z,46.26
2023-03-04T22:04:08.668Z,46.11
2023-03-04T22:06:35.659Z,46.27
2023-03-04T22:09:02.845Z,46.28
2023-03-04T22:11:30.316Z,46.26
2023-03-04T22:13:58.317Z,46.42
2023-03-04T22:16:25.302Z,46.48
2023-03-04T22:18:52.232Z,46.51
2023-03-04T22:21:19.649Z,46.50
2023-03-04T22:23:46.473Z,46.53
2023-03-04T22:26:18.162Z,46.78
2023-03-04T22:28:45.183Z,46.74
2023-03-04T22:31:29.901Z,46.80
2023-03-04T22:34:01.095Z,47.03
2023-03-04T22:36:34.417Z,46.92
2023-03-04T22:39:02.124Z,46.92
2023-03-04T22:41:28.908Z,47.14
2023-03-04T22:43:56.067Z,47.23
2023-03-04T22:46:27.626Z,47.20
2023-03-04T22:48:56.005Z,47.18
2023-03-04T22:51:22.757Z,47.31
2023-03-04T22:53:50.363Z,47.22
2023-03-04T22:56:17.614Z,47.18
2023-03-04T22:58:45.111Z,47.94
2023-03-04T23:01:12.661Z,47.54
2023-03-04T23:03:40.169Z,47.78
2023-03-04T23:06:08.078Z,47.48
2023-03-04T23:08:35.756Z,47.46
2023-03-04T23:11:03.267Z,47.23
2023-03-04T23:13:30.188Z,47.21
2023-03-04T23:15:57.091Z,47.14
2023-03-04T23:18:24.065Z,46.95
2023-03-04T23:20:50.883Z,46.68
2023-03-04T23:23:17.626Z,46.62
2023-03-04T23:25:46.462Z,46.39
2023-03-04T23:28:13.200Z,46.26
2023-03-04T23:30:39.990Z,46.11
2023-03-04T23:33:06.895Z,45.97
2023-03-04T23:35:33.689Z,45.94
2023-03-04T23:38:00.528Z,46.12
2023-03-04T23:40:27.414Z,46.01
2023-03-04T23:42:54.206Z,46.20
2023-03-04T23:45:20.980Z,46.22
2023-03-04T23:47:47.901Z,46.28
2023-03-04T23:50:16.144Z,46.33
2023-03-04T23:52:44.099Z,46.26
2023-03-04T23:55:15.877Z,46.31
2023-03-04T23:57:42.980Z,46.56
